Bronx, NY

7:01 PM EDT on March 28, 2015 (GMT -0400)
Central Park | | Change Station
CLOSE
Current Station
Airport
Location: Central Park,
Elevation: 154 ft
Nearby Weather Stations

Elev 154 ft 40.78 °N, 73.97 °W | Updated 10 minutes ago

Overcast
Overcast
36 °F
Feels Like 28 °F
N
13
Wind Variable Wind from WNW
Gusts 20 mph

Today
High -- | Low -- °F
--% Chance of Precip.
Yesterday
High -- | Low -- °F
Precip. -- in
6:46 AM 7:16 PM
Waxing Gibbous, 66% visible
Pressure 29.95 in
Visibility 10.0 miles
Clouds Mostly Cloudy 5000 ft
Overcast 8000 ft
Windchill 28 °F
Dew Point 15 °F
Humidity 43%
Rainfall 0.00 in
Snow Depth Not available.
UV 0 out of 12
Pollen 8.00 out of 12
Air Quality Not available.
Flu Activity Not available.
METAR KNYC 282251Z AUTO 30011G17KT 10SM BKN050 OVC080 02/M09 A2997 RMK AO2 SLP141 T00221094 $

More Conditions Fewer Conditions

Pressure 29.95 in
Visibility 10.0 miles
Clouds Mostly Cloudy 5000 ft
Overcast 8000 ft
Windchill 28 °F
Dew Point 15 °F
Humidity 43%
Rainfall 0.00 in
Snow Depth Not available.
UV 0 out of 12
Pollen 8.00 out of 12
Air Quality Not available.
Flu Activity Not available.
METAR KNYC 282251Z AUTO 30011G17KT 10SM BKN050 OVC080 02/M09 A2997 RMK AO2 SLP141 T00221094 $

More Conditions Fewer Conditions

10-Day Weather Forecast

Almanac

Astronomy

Mar. 28, 2015 Rise Set
Actual Time
Civil Twilight
Nautical Twilight
Astronomical Twilight
Moon
Length of Visible Light
Length of Day
Tomorrow will be .
, % of the Moon is Illuminated

Today's Extremes

State Highs State Lows

Community

WunderPhotos

Upload Photos

1,809,121 photos uploaded!

WunderBlogs® & News

Nearby

Air Quality

  Air Quality AQ Index Pollutant
Not available.

Snow Depth

Station Depth Elevation

Earthquake Activity

City Distance Mag. Time & Date
Minimum magnitude displayed is 2.5.

Coastal Water Temperatures

Place Temperature

Stations

Nearby Weather Stations

Station Location Temp. Windchill Dew Point Humidity Wind Precip. Elev Updated Type